createdAt,value
2022-11-01T00:01:07.411Z,17.10
2022-11-01T00:03:10.625Z,16.90
2022-11-01T00:05:14.135Z,17.00
2022-11-01T00:07:16.994Z,17.00
2022-11-01T00:09:20.167Z,17.00
2022-11-01T00:11:23.113Z,17.00
2022-11-01T00:13:25.933Z,17.00
2022-11-01T00:15:30.140Z,17.00
2022-11-01T00:17:33.134Z,17.10
2022-11-01T00:19:36.004Z,17.00
2022-11-01T00:21:39.008Z,17.00
2022-11-01T00:23:42.090Z,16.90
2022-11-01T00:25:44.923Z,16.90
2022-11-01T00:27:48.171Z,16.90
2022-11-01T00:29:51.040Z,16.90
2022-11-01T00:31:55.229Z,16.90
2022-11-01T00:33:58.129Z,16.90
2022-11-01T00:36:02.081Z,16.80
2022-11-01T00:38:05.884Z,16.80
2022-11-01T00:40:09.432Z,16.80
2022-11-01T00:42:12.515Z,16.70
2022-11-01T00:44:15.392Z,16.70
2022-11-01T00:46:18.235Z,16.70
2022-11-01T00:48:22.410Z,16.70
2022-11-01T00:50:25.488Z,16.60
2022-11-01T00:52:28.380Z,16.60
2022-11-01T00:54:31.250Z,16.60
2022-11-01T00:56:34.128Z,16.60
2022-11-01T00:58:37.053Z,16.60
2022-11-01T01:00:39.930Z,16.60
2022-11-01T01:02:42.877Z,16.60
2022-11-01T01:04:50.566Z,16.60
2022-11-01T01:06:53.894Z,16.40
2022-11-01T01:08:59.846Z,16.40
2022-11-01T01:11:02.698Z,16.30
2022-11-01T01:13:05.754Z,16.30
2022-11-01T01:15:10.008Z,16.30
2022-11-01T01:17:12.940Z,16.30
2022-11-01T01:19:15.829Z,16.40
2022-11-01T01:21:20.100Z,16.40
2022-11-01T01:23:22.920Z,16.50
2022-11-01T01:25:25.741Z,16.50
2022-11-01T01:27:28.683Z,16.40
2022-11-01T01:29:31.673Z,16.30
2022-11-01T01:31:34.519Z,16.20
2022-11-01T01:33:38.149Z,16.20
2022-11-01T01:35:41.099Z,16.20
2022-11-01T01:37:45.328Z,16.20
2022-11-01T01:39:48.476Z,16.20
2022-11-01T01:41:56.166Z,16.20
2022-11-01T01:43:59.477Z,16.20
2022-11-01T01:46:02.365Z,16.30
2022-11-01T01:48:16.743Z,16.30
2022-11-01T01:50:25.298Z,16.30
2022-11-01T01:52:29.689Z,16.30
2022-11-01T01:54:34.018Z,16.20
2022-11-01T01:56:38.394Z,16.20
2022-11-01T01:58:46.018Z,16.20
2022-11-01T02:00:49.597Z,16.20
2022-11-01T02:02:52.960Z,16.20
2022-11-01T02:04:59.981Z,16.20
2022-11-01T02:07:03.156Z,16.20
2022-11-01T02:09:07.896Z,16.30
2022-11-01T02:11:13.013Z,16.20
2022-11-01T02:13:16.216Z,16.20
2022-11-01T02:15:21.988Z,16.10
2022-11-01T02:17:31.517Z,16.20
2022-11-01T02:20:14.977Z,16.10
2022-11-01T02:22:22.871Z,15.90
2022-11-01T02:24:49.497Z,15.90
2022-11-01T02:27:07.961Z,16.00
2022-11-01T02:29:24.806Z,16.00
2022-11-01T02:31:43.631Z,15.90
2022-11-01T02:33:51.660Z,15.90
2022-11-01T02:36:02.273Z,15.90
2022-11-01T02:38:09.837Z,15.90
2022-11-01T02:40:18.513Z,15.90
2022-11-01T02:42:25.963Z,15.90
2022-11-01T02:44:32.797Z,15.90
2022-11-01T02:46:57.467Z,15.90
2022-11-01T02:49:02.828Z,16.00
2022-11-01T02:51:05.834Z,16.10
2022-11-01T02:53:09.396Z,16.10
2022-11-01T02:55:29.783Z,16.10
2022-11-01T02:57:37.414Z,16.10
2022-11-01T02:59:44.635Z,16.20
2022-11-01T03:01:53.684Z,16.20
2022-11-01T03:03:58.735Z,16.20
2022-11-01T03:06:13.179Z,16.10
2022-11-01T03:08:19.950Z,16.10
2022-11-01T03:10:27.465Z,16.10
2022-11-01T03:12:36.268Z,16.20
2022-11-01T03:14:47.798Z,16.10
2022-11-01T03:16:55.825Z,16.00
2022-11-01T03:19:27.021Z,16.00
2022-11-01T03:21:37.237Z,16.00
2022-11-01T03:23:47.183Z,16.00
2022-11-01T03:25:54.923Z,16.00
2022-11-01T03:28:00.065Z,16.10
2022-11-01T03:30:06.052Z,16.10
2022-11-01T03:32:09.955Z,16.20
2022-11-01T03:34:16.012Z,16.30
2022-11-01T03:36:22.169Z,16.20
2022-11-01T03:38:29.711Z,16.20
2022-11-01T03:40:35.522Z,16.10
2022-11-01T03:42:40.141Z,16.20
2022-11-01T03:44:48.221Z,16.20
2022-11-01T03:46:51.543Z,16.30
2022-11-01T03:48:54.406Z,16.30
2022-11-01T03:50:57.299Z,16.30
2022-11-01T03:53:00.295Z,16.40
2022-11-01T03:55:18.063Z,16.40
2022-11-01T03:57:21.095Z,16.40
2022-11-01T03:59:26.572Z,16.40
2022-11-01T04:01:29.578Z,16.40
2022-11-01T04:03:33.664Z,16.40
2022-11-01T04:05:39.063Z,16.50
2022-11-01T04:07:41.962Z,16.40
2022-11-01T04:09:44.799Z,16.40
2022-11-01T04:11:48.988Z,16.50
2022-11-01T04:13:51.847Z,16.40
2022-11-01T04:16:12.172Z,16.40
2022-11-01T04:18:35.535Z,16.40
2022-11-01T04:20:39.274Z,16.40
2022-11-01T04:22:42.204Z,16.30
2022-11-01T04:24:45.058Z,16.40
2022-11-01T04:26:49.494Z,16.30
2022-11-01T04:28:57.931Z,16.30
2022-11-01T04:31:00.955Z,16.30
2022-11-01T04:33:04.231Z,16.40
2022-11-01T04:35:11.510Z,16.40
2022-11-01T04:37:14.576Z,16.40
2022-11-01T04:39:17.449Z,16.40
2022-11-01T04:41:22.467Z,16.40
2022-11-01T04:43:26.661Z,16.40
2022-11-01T04:45:29.708Z,16.40
2022-11-01T04:47:32.796Z,16.40
2022-11-01T04:49:35.650Z,16.40
2022-11-01T04:51:41.362Z,16.40
2022-11-01T04:53:44.645Z,16.30
2022-11-01T04:55:48.771Z,16.30
2022-11-01T04:57:51.937Z,16.20
2022-11-01T04:59:57.918Z,16.20
2022-11-01T05:02:00.749Z,16.30
2022-11-01T05:04:03.656Z,16.30
2022-11-01T05:06:06.825Z,16.30
2022-11-01T05:08:11.189Z,16.40
2022-11-01T05:10:14.153Z,16.30
2022-11-01T05:12:18.853Z,16.30
2022-11-01T05:14:21.686Z,16.30
2022-11-01T05:16:25.868Z,16.40
2022-11-01T05:18:29.310Z,16.40
2022-11-01T05:20:32.943Z,16.40
2022-11-01T05:22:35.774Z,16.40
2022-11-01T05:24:38.735Z,16.40
2022-11-01T05:26:41.570Z,16.50
2022-11-01T05:28:44.427Z,16.50
2022-11-01T05:30:47.316Z,16.50
2022-11-01T05:32:57.117Z,16.60
2022-11-01T05:34:59.970Z,16.70
2022-11-01T05:37:02.814Z,16.70
2022-11-01T05:39:05.942Z,16.90
2022-11-01T05:41:08.909Z,17.00
2022-11-01T05:43:11.890Z,17.10
2022-11-01T05:45:15.200Z,17.20
2022-11-01T05:47:18.042Z,17.20
2022-11-01T05:49:22.645Z,17.20
2022-11-01T05:51:25.844Z,17.30
2022-11-01T05:53:28.689Z,17.30
2022-11-01T05:55:31.556Z,17.40
2022-11-01T05:57:35.029Z,17.40
2022-11-01T05:59:37.972Z,17.50
2022-11-01T06:01:40.897Z,17.60
2022-11-01T06:03:43.839Z,17.50
2022-11-01T06:05:49.366Z,17.50
2022-11-01T06:07:52.209Z,17.50
2022-11-01T06:09:55.094Z,17.50
2022-11-01T06:11:59.095Z,17.60
2022-11-01T06:14:01.968Z,17.50
2022-11-01T06:16:06.844Z,17.50
2022-11-01T06:18:09.826Z,17.50
2022-11-01T06:20:13.312Z,17.60
2022-11-01T06:22:17.491Z,17.60
2022-11-01T06:24:20.740Z,17.70
2022-11-01T06:26:23.700Z,17.60
2022-11-01T06:28:26.568Z,17.70
2022-11-01T06:30:29.638Z,17.70
2022-11-01T06:32:32.501Z,17.70
2022-11-01T06:34:36.387Z,17.80
2022-11-01T06:36:41.496Z,17.80
2022-11-01T06:38:45.699Z,17.80
2022-11-01T06:40:49.153Z,17.80
2022-11-01T06:42:51.961Z,17.80
2022-11-01T06:44:54.823Z,17.80
2022-11-01T06:46:57.713Z,17.80
2022-11-01T06:49:00.805Z,17.90
2022-11-01T06:51:04.231Z,18.00
2022-11-01T06:53:07.098Z,18.10
2022-11-01T06:55:11.382Z,18.10
2022-11-01T06:57:14.252Z,18.10
2022-11-01T06:59:17.415Z,18.20
2022-11-01T07:01:22.138Z,18.10
2022-11-01T07:03:25.292Z,18.10
2022-11-01T07:05:30.390Z,18.10
2022-11-01T07:07:35.873Z,18.20
2022-11-01T07:09:38.789Z,18.20
2022-11-01T07:25:53.891Z,17.40
2022-11-01T07:27:57.017Z,18.00
2022-11-01T07:29:59.837Z,18.20
2022-11-01T07:32:02.637Z,18.30
2022-11-01T07:34:05.745Z,18.40
2022-11-01T07:36:09.400Z,18.50
2022-11-01T07:38:13.224Z,18.60
2022-11-01T07:40:16.799Z,18.60
2022-11-01T07:42:20.907Z,18.70
2022-11-01T07:44:23.732Z,18.70
2022-11-01T07:46:26.533Z,18.80
2022-11-01T07:48:29.380Z,18.70
2022-11-01T07:50:33.534Z,18.80
2022-11-01T07:52:36.436Z,18.80
2022-11-01T07:54:39.239Z,18.80
2022-11-01T07:56:42.144Z,18.80
2022-11-01T07:58:46.451Z,18.80
2022-11-01T08:00:49.312Z,18.90
2022-11-01T08:02:52.374Z,18.90
2022-11-01T08:04:55.258Z,18.90
2022-11-01T08:06:58.082Z,19.00
2022-11-01T08:09:00.901Z,19.00
2022-11-01T08:11:03.819Z,18.90
2022-11-01T08:13:08.961Z,19.00
2022-11-01T08:15:13.226Z,19.10
2022-11-01T08:17:47.051Z,19.10
2022-11-01T08:19:49.881Z,19.20
2022-11-01T08:21:52.697Z,19.30
2022-11-01T08:23:55.584Z,19.40
2022-11-01T08:25:59.899Z,19.40
2022-11-01T08:28:03.700Z,19.50
2022-11-01T08:30:07.708Z,19.50
2022-11-01T08:32:10.585Z,19.50
2022-11-01T08:34:16.937Z,19.60
2022-11-01T08:36:21.900Z,19.60
2022-11-01T08:38:24.758Z,19.60
2022-11-01T08:40:29.076Z,19.60
2022-11-01T08:42:31.883Z,19.70
2022-11-01T08:44:35.493Z,19.80
2022-11-01T08:46:38.336Z,19.90
2022-11-01T08:48:41.167Z,20.00
2022-11-01T08:50:45.527Z,20.10
2022-11-01T08:52:48.415Z,20.10
2022-11-01T08:54:51.240Z,20.20
2022-11-01T08:56:54.089Z,20.10
2022-11-01T08:58:57.757Z,20.10
2022-11-01T09:01:00.770Z,20.10
2022-11-01T09:03:03.847Z,20.10
2022-11-01T09:05:07.656Z,20.10
2022-11-01T09:07:11.814Z,20.00
2022-11-01T09:09:14.991Z,20.00
2022-11-01T09:11:17.936Z,20.10
2022-11-01T09:13:20.823Z,19.70
2022-11-01T09:15:23.664Z,19.90
2022-11-01T09:17:26.623Z,20.10
2022-11-01T09:19:29.462Z,20.20
2022-11-01T09:21:32.323Z,20.30
2022-11-01T09:23:37.432Z,20.40
2022-11-01T09:25:40.321Z,20.50
2022-11-01T09:27:43.140Z,20.60
2022-11-01T09:29:48.102Z,20.60
2022-11-01T09:31:55.101Z,20.50
2022-11-01T09:33:58.921Z,20.60
2022-11-01T09:36:02.357Z,20.60
2022-11-01T09:38:06.142Z,20.60
2022-11-01T09:40:13.384Z,20.60
2022-11-01T09:42:23.736Z,20.70
2022-11-01T09:44:29.893Z,20.80
2022-11-01T09:46:44.700Z,20.90
2022-11-01T09:48:50.170Z,20.90
2022-11-01T09:50:53.923Z,21.10
2022-11-01T09:52:58.340Z,21.20
2022-11-01T09:55:01.277Z,21.20
2022-11-01T09:57:17.431Z,21.30
2022-11-01T09:59:27.949Z,21.20
2022-11-01T10:01:41.199Z,21.30
2022-11-01T10:04:03.417Z,21.20
2022-11-01T10:06:15.961Z,21.30
2022-11-01T10:08:29.766Z,21.20
2022-11-01T10:10:39.919Z,21.20
2022-11-01T10:12:59.209Z,21.40
2022-11-01T10:15:20.304Z,21.40
2022-11-01T10:17:36.525Z,21.40
2022-11-01T10:19:40.414Z,21.40
2022-11-01T10:21:47.783Z,21.20
2022-11-01T10:23:52.098Z,21.30
2022-11-01T10:25:55.084Z,21.00
2022-11-01T10:28:08.772Z,21.10
2022-11-01T10:30:15.550Z,21.10
2022-11-01T10:32:27.039Z,20.80
2022-11-01T10:34:36.186Z,21.00
2022-11-01T10:36:44.912Z,21.00
2022-11-01T10:39:23.406Z,21.20
2022-11-01T10:41:21.318Z,21.00
2022-11-01T10:43:27.043Z,20.90
2022-11-01T10:45:30.869Z,21.00
2022-11-01T10:47:36.953Z,21.00
2022-11-01T10:50:04.849Z,21.00
2022-11-01T10:52:11.973Z,21.10
2022-11-01T10:54:21.289Z,21.10
2022-11-01T10:56:28.883Z,20.90
2022-11-01T10:58:39.257Z,20.80
2022-11-01T11:00:43.467Z,20.50
2022-11-01T11:02:50.090Z,20.70
2022-11-01T11:04:53.037Z,20.70
2022-11-01T11:06:56.870Z,20.80
2022-11-01T11:09:00.358Z,21.00
2022-11-01T11:11:06.138Z,20.90
2022-11-01T11:13:10.319Z,21.00
2022-11-01T11:15:25.334Z,20.70
2022-11-01T11:17:35.712Z,21.00
2022-11-01T11:19:39.252Z,21.10
2022-11-01T11:21:44.293Z,20.90
2022-11-01T11:23:47.812Z,20.70
2022-11-01T11:25:51.596Z,20.70
2022-11-01T11:27:56.463Z,20.80
2022-11-01T11:30:01.402Z,20.50
2022-11-01T11:32:08.823Z,20.90
2022-11-01T11:34:23.461Z,20.80
2022-11-01T11:36:30.222Z,20.80
2022-11-01T11:38:44.407Z,20.70
2022-11-01T11:40:47.464Z,20.70
2022-11-01T11:42:51.543Z,20.80
2022-11-01T11:44:57.044Z,20.80
2022-11-01T11:47:00.001Z,20.70
2022-11-01T11:49:07.081Z,20.80
2022-11-01T11:51:11.413Z,20.80
2022-11-01T11:53:22.149Z,20.80
2022-11-01T11:55:32.597Z,20.80
2022-11-01T11:57:35.623Z,20.80
2022-11-01T11:59:40.076Z,20.80
2022-11-01T12:01:43.198Z,20.80
2022-11-01T12:03:50.481Z,20.90
2022-11-01T12:05:57.587Z,20.80
2022-11-01T12:08:01.075Z,20.90
2022-11-01T12:10:07.166Z,21.10
2022-11-01T12:12:18.415Z,20.90
2022-11-01T12:14:24.572Z,21.20
2022-11-01T12:18:31.336Z,21.20
2022-11-01T12:20:38.799Z,21.20
2022-11-01T12:22:47.967Z,21.20
2022-11-01T12:24:53.076Z,21.20
2022-11-01T12:26:59.025Z,21.10
2022-11-01T12:29:13.283Z,21.30
2022-11-01T12:31:19.400Z,21.20
2022-11-01T12:33:27.975Z,21.50
2022-11-01T12:35:33.608Z,21.40
2022-11-01T12:37:48.469Z,21.50
2022-11-01T12:39:57.076Z,21.50
2022-11-01T12:42:03.860Z,21.50
2022-11-01T12:44:21.712Z,21.70
2022-11-01T12:46:32.308Z,21.90
2022-11-01T12:48:38.383Z,22.00
2022-11-01T12:50:47.752Z,21.90
2022-11-01T12:52:56.213Z,21.80
2022-11-01T12:55:05.147Z,21.70
2022-11-01T12:57:15.301Z,21.40
2022-11-01T12:59:25.911Z,21.50
2022-11-01T13:01:36.438Z,21.50
2022-11-01T13:03:45.741Z,21.50
2022-11-01T13:05:55.525Z,21.20
2022-11-01T13:08:11.693Z,21.60
2022-11-01T13:10:22.783Z,21.40
2022-11-01T13:12:35.920Z,21.40
2022-11-01T13:14:47.304Z,21.40
2022-11-01T13:16:59.859Z,21.60
2022-11-01T13:19:11.584Z,21.70
2022-11-01T13:21:26.502Z,21.80
2022-11-01T13:23:37.387Z,21.80
2022-11-01T13:25:45.537Z,21.80
2022-11-01T13:27:55.186Z,21.90
2022-11-01T13:30:03.427Z,21.90
2022-11-01T13:32:14.605Z,22.00
2022-11-01T13:34:27.959Z,22.00
2022-11-01T13:36:34.894Z,22.00
2022-11-01T13:38:45.751Z,22.00
2022-11-01T13:40:58.006Z,21.90
2022-11-01T13:43:05.690Z,21.90
2022-11-01T13:45:40.826Z,21.90
2022-11-01T13:47:54.768Z,22.00
2022-11-01T13:50:22.166Z,22.10
2022-11-01T13:52:28.672Z,22.10
2022-11-01T13:54:36.792Z,22.00
2022-11-01T13:56:44.008Z,21.60
2022-11-01T13:58:47.025Z,21.60
2022-11-01T14:00:52.192Z,21.60
2022-11-01T14:02:59.236Z,21.70
2022-11-01T14:05:04.403Z,21.50
2022-11-01T14:07:15.456Z,21.70
2022-11-01T14:09:33.073Z,21.60
2022-11-01T14:11:46.772Z,21.60
2022-11-01T14:13:49.859Z,21.50
2022-11-01T14:16:16.650Z,21.50
2022-11-01T14:18:19.533Z,21.50
2022-11-01T14:20:48.984Z,21.30
2022-11-01T14:22:51.839Z,21.40
2022-11-01T14:24:59.648Z,21.30
2022-11-01T14:27:24.301Z,21.30
2022-11-01T14:29:27.139Z,21.40
2022-11-01T14:31:34.176Z,21.30
2022-11-01T14:33:37.473Z,21.40
2022-11-01T14:35:43.697Z,21.40
2022-11-01T14:37:50.048Z,21.30
2022-11-01T14:40:00.328Z,21.30
2022-11-01T14:42:06.139Z,21.00
2022-11-01T14:44:18.122Z,21.10
2022-11-01T14:46:24.614Z,21.20
2022-11-01T14:48:31.983Z,21.00
2022-11-01T14:50:46.391Z,20.80
2022-11-01T14:52:54.597Z,20.90
2022-11-01T14:55:06.465Z,21.00
2022-11-01T14:57:21.743Z,20.90
2022-11-01T14:59:26.385Z,20.90
2022-11-01T15:01:29.336Z,20.90
2022-11-01T15:03:33.139Z,20.90
2022-11-01T15:05:44.101Z,20.90
2022-11-01T15:07:51.718Z,20.60
2022-11-01T15:10:01.054Z,20.60
2022-11-01T15:12:07.770Z,20.60
2022-11-01T15:14:11.227Z,20.40
2022-11-01T15:16:16.863Z,20.30
2022-11-01T15:18:21.543Z,20.30
2022-11-01T15:20:27.405Z,20.20
2022-11-01T15:22:33.638Z,20.20
2022-11-01T15:24:36.604Z,20.10
2022-11-01T15:26:40.881Z,20.00
2022-11-01T15:28:48.036Z,19.90
2022-11-01T15:30:56.718Z,19.90
2022-11-01T15:33:16.122Z,19.80
2022-11-01T15:35:23.935Z,19.60
2022-11-01T15:37:30.568Z,19.50
2022-11-01T15:39:37.840Z,19.50
2022-11-01T15:41:42.656Z,19.60
2022-11-01T15:43:52.388Z,19.60
2022-11-01T15:45:57.446Z,19.60
2022-11-01T15:48:03.768Z,19.60
2022-11-01T15:50:07.640Z,19.50
2022-11-01T15:52:18.784Z,19.50
2022-11-01T15:54:34.980Z,19.50
2022-11-01T15:56:43.791Z,19.40
2022-11-01T15:58:50.579Z,19.40
2022-11-01T16:00:57.078Z,19.30
2022-11-01T16:03:05.416Z,19.20
2022-11-01T16:05:10.081Z,19.20
2022-11-01T16:07:18.171Z,19.10
2022-11-01T16:09:33.157Z,19.00
2022-11-01T16:11:36.618Z,18.90
2022-11-01T16:13:40.795Z,18.90
2022-11-01T16:15:59.956Z,18.80
2022-11-01T16:18:15.110Z,18.80
2022-11-01T16:20:31.490Z,18.60
2022-11-01T16:22:37.066Z,18.60
2022-11-01T16:24:39.998Z,18.50
2022-11-01T16:27:04.571Z,18.40
2022-11-01T16:29:16.347Z,18.30
2022-11-01T16:31:22.420Z,18.20
2022-11-01T16:33:30.073Z,18.20
2022-11-01T16:35:36.097Z,18.10
2022-11-01T16:37:44.802Z,18.00
2022-11-01T16:39:48.111Z,17.80
2022-11-01T16:41:52.247Z,17.80
2022-11-01T16:43:56.684Z,17.70
2022-11-01T16:46:01.534Z,17.70
2022-11-01T16:48:05.580Z,17.70
2022-11-01T16:50:17.986Z,17.60
2022-11-01T16:52:22.327Z,17.50
2022-11-01T16:54:25.668Z,17.50
2022-11-01T16:56:36.596Z,17.50
2022-11-01T16:58:39.914Z,17.50
2022-11-01T17:00:53.868Z,17.40
2022-11-01T17:02:59.510Z,17.30
2022-11-01T17:05:08.797Z,17.20
2022-11-01T17:07:12.113Z,17.10
2022-11-01T17:09:16.693Z,17.00
2022-11-01T17:11:19.640Z,16.80
2022-11-01T17:13:22.699Z,16.70
2022-11-01T17:15:27.184Z,16.70
2022-11-01T17:17:30.503Z,16.70
2022-11-01T17:19:35.828Z,16.50
2022-11-01T17:21:39.934Z,16.40
2022-11-01T17:23:43.318Z,16.50
2022-11-01T17:25:48.423Z,16.40
2022-11-01T17:27:51.822Z,16.30
2022-11-01T17:29:54.647Z,16.30
2022-11-01T17:31:57.467Z,16.20
2022-11-01T17:34:00.285Z,16.20
2022-11-01T17:36:05.016Z,16.10
2022-11-01T17:38:13.121Z,16.20
2022-11-01T17:40:20.355Z,16.10
2022-11-01T17:42:23.588Z,16.00
2022-11-01T17:44:26.918Z,15.80
2022-11-01T17:46:29.785Z,15.70
2022-11-01T17:48:32.599Z,15.70
2022-11-01T17:50:35.407Z,15.60
2022-11-01T17:52:39.747Z,15.60
2022-11-01T17:54:42.639Z,15.60
2022-11-01T17:56:45.558Z,15.60
2022-11-01T17:58:52.136Z,15.60
2022-11-01T18:00:55.282Z,15.60
2022-11-01T18:02:58.495Z,15.60
2022-11-01T18:05:01.441Z,15.60
2022-11-01T18:07:06.428Z,15.70
2022-11-01T18:09:20.910Z,15.70
2022-11-01T18:11:38.226Z,15.70
2022-11-01T18:13:52.031Z,15.70
2022-11-01T18:16:00.329Z,15.60
2022-11-01T18:18:26.549Z,15.60
2022-11-01T18:20:41.541Z,15.60
2022-11-01T18:22:50.337Z,15.70
2022-11-01T18:24:59.868Z,15.70
2022-11-01T18:27:03.341Z,15.70
2022-11-01T18:29:17.193Z,15.70
2022-11-01T18:31:26.654Z,15.70
2022-11-01T18:33:38.093Z,15.80
2022-11-01T18:35:48.008Z,15.70
2022-11-01T18:38:04.515Z,15.70
2022-11-01T18:40:16.892Z,15.70
2022-11-01T18:42:19.702Z,15.70
2022-11-01T18:44:23.356Z,15.70
2022-11-01T18:46:31.741Z,15.60
2022-11-01T18:48:35.096Z,15.60
2022-11-01T18:50:38.536Z,15.60
2022-11-01T18:52:41.378Z,15.70
2022-11-01T18:54:53.631Z,15.70
2022-11-01T18:57:10.545Z,15.60
2022-11-01T18:59:14.455Z,15.60
2022-11-01T19:01:19.956Z,15.60
2022-11-01T19:03:24.271Z,15.60
2022-11-01T19:05:27.792Z,15.70
2022-11-01T19:07:39.593Z,15.70
2022-11-01T19:09:55.367Z,15.70
2022-11-01T19:12:02.379Z,15.60
2022-11-01T19:14:06.223Z,15.70
2022-11-01T19:16:13.672Z,15.60
2022-11-01T19:18:19.709Z,15.60
2022-11-01T19:20:27.704Z,15.60
2022-11-01T19:22:37.716Z,15.60
2022-11-01T19:24:40.765Z,15.50
2022-11-01T19:26:43.880Z,15.50
2022-11-01T19:28:52.056Z,15.60
2022-11-01T19:30:58.433Z,15.60
2022-11-01T19:33:14.184Z,15.50
2022-11-01T19:35:21.851Z,15.50
2022-11-01T19:37:31.789Z,15.50
2022-11-01T19:39:40.764Z,15.40
2022-11-01T19:41:44.808Z,15.20
2022-11-01T19:43:50.233Z,15.20
2022-11-01T19:45:54.453Z,15.20
2022-11-01T19:47:58.383Z,15.20
2022-11-01T19:50:02.223Z,15.10
2022-11-01T19:52:25.067Z,15.10
2022-11-01T19:54:34.574Z,15.10
2022-11-01T19:56:37.384Z,15.00
2022-11-01T19:58:45.347Z,15.10
2022-11-01T20:00:49.800Z,15.10
2022-11-01T20:02:55.257Z,15.10
2022-11-01T20:05:01.109Z,15.10
2022-11-01T20:07:16.208Z,15.10
2022-11-01T20:09:22.468Z,15.10
2022-11-01T20:11:25.948Z,15.10
2022-11-01T20:13:28.964Z,15.10
2022-11-01T20:15:32.065Z,15.10
2022-11-01T20:17:36.684Z,15.10
2022-11-01T20:19:39.809Z,15.10
2022-11-01T20:21:42.673Z,15.10
2022-11-01T20:23:45.714Z,15.10
2022-11-01T20:25:48.538Z,15.10
2022-11-01T20:27:51.379Z,15.20
2022-11-01T20:29:54.211Z,15.20
2022-11-01T20:31:57.013Z,15.20
2022-11-01T20:34:01.284Z,15.20
2022-11-01T20:36:10.851Z,15.20
2022-11-01T20:38:14.175Z,15.20
2022-11-01T20:40:17.212Z,15.20
2022-11-01T20:42:20.091Z,15.20
2022-11-01T20:44:23.090Z,15.10
2022-11-01T20:46:25.896Z,15.10
2022-11-01T20:48:28.696Z,15.10
2022-11-01T20:50:32.858Z,15.10
2022-11-01T20:52:39.671Z,15.10
2022-11-01T20:54:43.116Z,15.10
2022-11-01T20:56:45.958Z,15.00
2022-11-01T20:58:49.193Z,15.00
2022-11-01T21:00:52.461Z,15.00
2022-11-01T21:02:57.352Z,14.90
2022-11-01T21:05:03.692Z,14.90
2022-11-01T21:07:12.934Z,14.90
2022-11-01T21:09:28.148Z,14.90
2022-11-01T21:11:43.704Z,14.90
2022-11-01T21:13:46.946Z,14.80
2022-11-01T21:15:49.979Z,14.70
2022-11-01T21:17:53.571Z,14.60
2022-11-01T21:19:56.379Z,14.60
2022-11-01T21:21:59.863Z,14.50
2022-11-01T21:24:35.203Z,14.40
2022-11-01T21:26:41.921Z,14.30
2022-11-01T21:28:47.618Z,14.30
2022-11-01T21:30:50.432Z,14.30
2022-11-01T21:32:53.363Z,14.30
2022-11-01T21:34:56.722Z,14.30
2022-11-01T21:37:00.893Z,14.20
2022-11-01T21:39:09.988Z,14.10
2022-11-01T21:41:31.482Z,14.00
2022-11-01T21:43:35.708Z,13.90
2022-11-01T21:45:38.917Z,13.90
2022-11-01T21:47:45.543Z,13.90
2022-11-01T21:49:49.693Z,13.70
2022-11-01T21:51:52.695Z,13.70
2022-11-01T21:53:58.885Z,13.70
2022-11-01T21:56:05.099Z,13.70
2022-11-01T21:58:09.237Z,13.70
2022-11-01T22:00:15.427Z,13.70
2022-11-01T22:02:18.438Z,13.70
2022-11-01T22:04:23.420Z,13.60
2022-11-01T22:06:29.064Z,13.60
2022-11-01T22:08:31.959Z,13.60
2022-11-01T22:10:34.865Z,13.40
2022-11-01T22:12:37.772Z,13.50
2022-11-01T22:14:42.060Z,13.40
2022-11-01T22:16:45.253Z,13.30
2022-11-01T22:18:48.141Z,13.40
2022-11-01T22:20:51.024Z,13.30
2022-11-01T22:22:53.879Z,13.30
2022-11-01T22:24:56.696Z,13.40
2022-11-01T22:26:59.567Z,13.40
2022-11-01T22:29:02.474Z,13.30
2022-11-01T22:31:07.188Z,13.20
2022-11-01T22:33:11.156Z,13.30
2022-11-01T22:35:14.159Z,13.20
2022-11-01T22:37:17.017Z,13.30
2022-11-01T22:39:23.167Z,13.30
2022-11-01T22:41:31.736Z,13.30
2022-11-01T22:43:38.963Z,13.20
2022-11-01T22:45:42.609Z,13.10
2022-11-01T22:47:47.700Z,13.10
2022-11-01T22:49:53.920Z,13.00
2022-11-01T22:51:58.847Z,13.00
2022-11-01T22:54:01.738Z,12.90
2022-11-01T22:56:04.861Z,13.00
2022-11-01T22:58:25.897Z,13.00
2022-11-01T23:00:31.672Z,13.00
2022-11-01T23:02:38.131Z,13.10
2022-11-01T23:04:42.330Z,13.10
2022-11-01T23:06:45.198Z,13.20
2022-11-01T23:08:48.846Z,13.30
2022-11-01T23:10:52.904Z,13.30
2022-11-01T23:13:17.969Z,13.40
2022-11-01T23:15:26.344Z,13.40
2022-11-01T23:17:34.030Z,13.50
2022-11-01T23:21:46.326Z,13.50
2022-11-01T23:23:49.923Z,13.50
2022-11-01T23:25:54.243Z,13.40
2022-11-01T23:27:57.142Z,13.40
2022-11-01T23:30:02.594Z,13.40
2022-11-01T23:32:06.111Z,13.40
2022-11-01T23:34:10.953Z,13.50
2022-11-01T23:36:19.588Z,13.50
2022-11-01T23:38:32.938Z,13.50
2022-11-01T23:40:35.724Z,13.40
2022-11-01T23:42:40.142Z,13.40
2022-11-01T23:44:43.282Z,13.50
2022-11-01T23:46:46.250Z,13.50
2022-11-01T23:48:49.609Z,13.60
2022-11-01T23:50:53.800Z,13.60
2022-11-01T23:52:58.897Z,13.60
2022-11-01T23:55:04.406Z,13.60
2022-11-01T23:57:07.322Z,13.60
2022-11-01T23:59:10.282Z,13.60
